»·PEaware :: FFT765 KDEN-KLAS

FFT765 :: KDEN-KLAS

FLIGHT INFORMATION

Flight Status: Arrived
Operator:
Frontier Airlines
More flights by this operator :: More flights under this callsign
Pilot: Anonymous 12234 (12234)
Aircraft: AIRBUS A320
(A320)
More flights by this aircraft type
Origin: KDEN Denver Intl
United States
Destination: KLAS McCarran Intl
United States
More flights between these airports :: More routes between these airports
Route: CONNR4 DBL J60 HVE GGAPP SITEE3
File this flight plan on PilotEdge
Remarks:
Altitude:
(Current/Filed)
34,000ft
Speed:
(Current/Filed)
456kts
Departed: 28-Jul-18 08:49 AM
Arrived: 28-Jul-18 10:21 AM
Distance/Time
Traveled:
544nm/1:32
Distance/Time
To Go:
Arrived

Flight Plot

Page will automatically refresh every two minutes.

Flight plan parsing failed; only flown route is shown


Map Options




Map Legend


Flown Route
Filed Route
Departure Airport
Arrival Airport
Navaid (VOR, NDB)
Fix

Horizontal Profiles

Position Reports

Time Latitude Longitude Heading Altitude Ground
Speed
28-Jul-18 08:22 39.853298 -104.670980 10 5329ft 0kts
28-Jul-18 08:23 39.853298 -104.670980 10 5329ft 0kts
28-Jul-18 08:24 39.853298 -104.670980 10 5329ft 0kts
28-Jul-18 08:25 39.853298 -104.670980 10 5329ft 0kts
28-Jul-18 08:26 39.853298 -104.670980 10 5329ft 0kts
28-Jul-18 08:27 39.853298 -104.670980 10 5329ft 0kts
28-Jul-18 08:28 39.853298 -104.670980 10 5329ft 0kts
28-Jul-18 08:29 39.853298 -104.670980 10 5329ft 0kts
28-Jul-18 08:30 39.853298 -104.670980 10 5329ft 0kts
28-Jul-18 08:31 39.853298 -104.670980 10 5329ft 0kts
28-Jul-18 08:32 39.853298 -104.670980 10 5329ft 0kts
28-Jul-18 08:33 39.853298 -104.670980 10 5329ft 0kts
28-Jul-18 08:34 39.853298 -104.670980 10 5329ft 0kts
28-Jul-18 08:35 39.853298 -104.670980 10 5329ft 0kts
28-Jul-18 08:36 39.853298 -104.670980 10 5329ft 0kts
28-Jul-18 08:37 39.853053 -104.671037 10 5329ft 2kts
28-Jul-18 08:38 39.852689 -104.671283 57 5329ft 0kts
28-Jul-18 08:39 39.852689 -104.671283 57 5329ft 0kts
28-Jul-18 08:40 39.852689 -104.671283 57 5329ft 0kts
28-Jul-18 08:41 39.852696 -104.671269 58 5329ft 0kts
28-Jul-18 08:42 39.852772 -104.668661 88 5329ft 8kts
28-Jul-18 08:43 39.852890 -104.664892 82 5329ft 2kts
28-Jul-18 08:44 39.851770 -104.662382 180 5329ft 16kts
28-Jul-18 08:45 39.847637 -104.662422 180 5329ft 13kts
28-Jul-18 08:46 39.844279 -104.662465 180 5329ft 15kts
28-Jul-18 08:47 39.838440 -104.662548 180 5329ft 21kts
28-Jul-18 08:48 39.832834 -104.662609 180 5329ft 18kts
28-Jul-18 08:49 39.828475 -104.662137 93 5329ft 10kts
28-Jul-18 08:50 39.830982 -104.660520 0 5329ft 64kts
28-Jul-18 08:51 39.872573 -104.663020 326 6920ft 172kts
28-Jul-18 08:52 39.880503 -104.727383 263 8791ft 238kts
28-Jul-18 08:53 39.870092 -104.821608 262 9961ft 300kts
28-Jul-18 08:54 39.858289 -104.918309 255 10076ft 289kts
28-Jul-18 08:55 39.836802 -105.018390 253 11934ft 333kts
28-Jul-18 08:56 39.812524 -105.131796 253 14447ft 349kts
28-Jul-18 08:57 39.786209 -105.251805 253 16902ft 359kts
28-Jul-18 08:58 39.759729 -105.376679 254 19161ft 367kts
28-Jul-18 08:59 39.732355 -105.504758 254 21143ft 375kts
28-Jul-18 09:00 39.709384 -105.613887 256 22600ft 381kts
28-Jul-18 09:01 39.690211 -105.746667 261 24276ft 387kts
28-Jul-18 09:02 39.674867 -105.885244 262 25819ft 394kts
28-Jul-18 09:03 39.656690 -106.047405 262 27451ft 400kts
28-Jul-18 09:04 39.640595 -106.189302 263 28689ft 407kts
28-Jul-18 09:05 39.620221 -106.332349 253 29785ft 417kts
28-Jul-18 09:06 39.584359 -106.445317 251 30572ft 424kts
28-Jul-18 09:07 39.542252 -106.576506 251 31440ft 428kts
28-Jul-18 09:08 39.498937 -106.710844 251 32620ft 425kts
28-Jul-18 09:09 39.454228 -106.848899 251 33651ft 424kts
28-Jul-18 09:10 39.416887 -106.984858 256 34469ft 416kts
28-Jul-18 09:11 39.381960 -107.124293 256 34570ft 414kts
28-Jul-18 09:12 39.346855 -107.263728 256 34701ft 418kts
28-Jul-18 09:13 39.311109 -107.404795 256 34730ft 417kts
28-Jul-18 09:14 39.275398 -107.544940 256 34693ft 416kts
28-Jul-18 09:15 39.239879 -107.683557 256 34461ft 415kts
28-Jul-18 09:16 39.204119 -107.822340 256 34341ft 415kts
28-Jul-18 09:17 39.167891 -107.962146 256 34355ft 415kts
28-Jul-18 09:18 39.131378 -108.102255 256 34346ft 415kts
28-Jul-18 09:19 39.095064 -108.240821 256 34333ft 415kts
28-Jul-18 09:20 39.058796 -108.378457 256 34311ft 417kts
28-Jul-18 09:21 39.021839 -108.517941 255 34323ft 419kts
28-Jul-18 09:22 38.985312 -108.655062 255 34309ft 423kts
28-Jul-18 09:23 38.950021 -108.786845 254 34320ft 430kts
28-Jul-18 09:24 38.911114 -108.931327 254 34345ft 436kts
28-Jul-18 09:25 38.872943 -109.072245 253 34343ft 439kts
28-Jul-18 09:26 38.833067 -109.218597 252 34299ft 434kts
28-Jul-18 09:27 38.793579 -109.362754 252 34279ft 429kts
28-Jul-18 09:28 38.754464 -109.504773 252 34247ft 423kts
28-Jul-18 09:29 38.715416 -109.645792 252 34204ft 419kts
28-Jul-18 09:30 38.677331 -109.782629 251 34205ft 420kts
28-Jul-18 09:31 38.638083 -109.922887 251 34229ft 421kts
28-Jul-18 09:32 38.599321 -110.060628 251 34250ft 421kts
28-Jul-18 09:33 38.559806 -110.200318 251 34259ft 421kts
28-Jul-18 09:34 38.520001 -110.340294 251 34259ft 421kts
28-Jul-18 09:35 38.480676 -110.477865 251 34257ft 421kts
28-Jul-18 09:36 38.440973 -110.616040 251 34258ft 421kts
28-Jul-18 09:37 38.389288 -110.745704 235 34201ft 427kts
28-Jul-18 09:38 38.317355 -110.864447 235 34126ft 424kts
28-Jul-18 09:39 38.246067 -110.982026 235 34082ft 423kts
28-Jul-18 09:40 38.174515 -111.099573 234 34050ft 424kts
28-Jul-18 09:41 38.102563 -111.217354 234 34063ft 427kts
28-Jul-18 09:42 38.030187 -111.335391 234 34161ft 428kts
28-Jul-18 09:43 37.957680 -111.453214 234 34368ft 429kts
28-Jul-18 09:44 37.885963 -111.569341 234 34492ft 428kts
28-Jul-18 09:45 37.814513 -111.684631 234 34505ft 428kts
28-Jul-18 09:46 37.741792 -111.801562 234 34483ft 430kts
28-Jul-18 09:47 37.668664 -111.918729 234 34499ft 431kts
28-Jul-18 09:48 37.595174 -112.036052 234 34508ft 431kts
28-Jul-18 09:49 37.523512 -112.155045 240 34505ft 429kts
28-Jul-18 09:50 37.462416 -112.282833 241 34500ft 428kts
28-Jul-18 09:51 37.401237 -112.410296 241 34496ft 428kts
28-Jul-18 09:52 37.339937 -112.537541 241 34497ft 426kts
28-Jul-18 09:53 37.279871 -112.661752 240 34488ft 425kts
28-Jul-18 09:54 37.218610 -112.787968 240 34362ft 427kts
28-Jul-18 09:55 37.157451 -112.913486 240 34169ft 427kts
28-Jul-18 09:56 37.096093 -113.038921 240 33207ft 423kts
28-Jul-18 09:57 37.035185 -113.162974 239 32290ft 418kts
28-Jul-18 09:58 36.975588 -113.283915 239 31004ft 406kts
28-Jul-18 09:59 36.917826 -113.400707 239 29194ft 391kts
28-Jul-18 10:00 36.862864 -113.511475 239 27459ft 377kts
28-Jul-18 10:01 36.808987 -113.619709 238 25699ft 364kts
28-Jul-18 10:02 36.757445 -113.722922 238 24023ft 351kts
28-Jul-18 10:03 36.707164 -113.823308 237 22361ft 339kts
28-Jul-18 10:04 36.658478 -113.920225 237 20749ft 327kts
28-Jul-18 10:05 36.611265 -114.013944 237 19179ft 316kts
28-Jul-18 10:06 36.565333 -114.104791 237 17641ft 310kts
28-Jul-18 10:07 36.519946 -114.193652 237 16118ft 303kts
28-Jul-18 10:08 36.475440 -114.280600 237 14622ft 297kts
28-Jul-18 10:09 36.428319 -114.363106 220 13296ft 305kts
28-Jul-18 10:10 36.362615 -114.430719 219 11619ft 308kts
28-Jul-18 10:11 36.298372 -114.496836 219 10074ft 296kts
28-Jul-18 10:12 36.237971 -114.558868 218 8870ft 280kts
28-Jul-18 10:13 36.179526 -114.618810 218 8057ft 260kts
28-Jul-18 10:14 36.129119 -114.670348 217 8050ft 231kts
28-Jul-18 10:15 36.080427 -114.721343 233 8046ft 235kts
28-Jul-18 10:16 36.074567 -114.800935 265 7297ft 234kts
28-Jul-18 10:17 36.074114 -114.881971 265 5936ft 245kts
28-Jul-18 10:18 36.073939 -114.961356 265 4710ft 228kts
28-Jul-18 10:19 36.073811 -115.028721 265 3679ft 170kts
28-Jul-18 10:20 36.073714 -115.082014 265 2877ft 153kts
28-Jul-18 10:21 36.073622 -115.134353 267 2121ft 142kts
28-Jul-18 10:22 36.075087 -115.155869 307 2120ft 5kts
28-Jul-18 10:23 36.075839 -115.156828 318 2120ft 14kts
28-Jul-18 10:24 36.077908 -115.157930 57 2120ft 10kts
28-Jul-18 10:25 36.078039 -115.152085 89 2120ft 19kts
28-Jul-18 10:26 36.078501 -115.146912 94 2120ft 13kts
28-Jul-18 10:27 36.078262 -115.141824 91 2120ft 16kts
28-Jul-18 10:28 36.078305 -115.135657 72 2120ft 13kts
28-Jul-18 10:29 36.081661 -115.133769 0 2120ft 14kts
28-Jul-18 10:30 36.084677 -115.135731 265 2120ft 14kts
28-Jul-18 10:31 36.083349 -115.136800 129 2120ft 9kts

Navigation Log

Ident Type
Flight plan parsing failed, navigation log unavailable